sensor_id;sensor_type;location;lat;lon;timestamp;pressure;altitude;pressure_sealevel;temperature;humidity
45541;BME280;31265;49.680;8.608;2023-04-04T00:01:16;101639.22;;;0.76;97.45
45541;BME280;31265;49.680;8.608;2023-04-04T00:03:46;101650.94;;;0.68;100.00
45541;BME280;31265;49.680;8.608;2023-04-04T00:06:19;101645.41;;;0.86;98.32
45541;BME280;31265;49.680;8.608;2023-04-04T00:08:47;101635.47;;;0.98;95.80
45541;BME280;31265;49.680;8.608;2023-04-04T00:11:15;101642.47;;;0.99;97.87
45541;BME280;31265;49.680;8.608;2023-04-04T00:13:44;101642.38;;;0.84;99.34
45541;BME280;31265;49.680;8.608;2023-04-04T00:16:13;101646.16;;;0.86;99.87
45541;BME280;31265;49.680;8.608;2023-04-04T00:18:41;101650.56;;;0.84;96.80
45541;BME280;31265;49.680;8.608;2023-04-04T00:21:09;101633.84;;;0.91;95.58
45541;BME280;31265;49.680;8.608;2023-04-04T00:23:40;101638.16;;;0.74;99.44
45541;BME280;31265;49.680;8.608;2023-04-04T00:26:08;101638.00;;;0.77;98.46
45541;BME280;31265;49.680;8.608;2023-04-04T00:28:39;101645.00;;;0.69;100.00
45541;BME280;31265;49.680;8.608;2023-04-04T00:31:08;101644.25;;;0.69;98.95
45541;BME280;31265;49.680;8.608;2023-04-04T00:33:36;101636.22;;;0.74;100.00
45541;BME280;31265;49.680;8.608;2023-04-04T00:36:05;101632.25;;;0.75;99.29
45541;BME280;31265;49.680;8.608;2023-04-04T00:38:34;101631.91;;;0.82;96.49
45541;BME280;31265;49.680;8.608;2023-04-04T00:41:06;101626.44;;;0.82;97.15
45541;BME280;31265;49.680;8.608;2023-04-04T00:43:35;101623.09;;;0.88;95.08
45541;BME280;31265;49.680;8.608;2023-04-04T00:46:04;101614.94;;;0.78;97.71
45541;BME280;31265;49.680;8.608;2023-04-04T00:48:32;101614.28;;;0.83;96.61
45541;BME280;31265;49.680;8.608;2023-04-04T00:51:00;101611.25;;;0.81;98.44
45541;BME280;31265;49.680;8.608;2023-04-04T00:53:29;101608.44;;;0.67;99.69
45541;BME280;31265;49.680;8.608;2023-04-04T00:55:58;101606.16;;;0.74;97.59
45541;BME280;31265;49.680;8.608;2023-04-04T00:58:31;101601.91;;;0.73;95.41
45541;BME280;31265;49.680;8.608;2023-04-04T01:00:59;101604.31;;;0.71;96.60
45541;BME280;31265;49.680;8.608;2023-04-04T01:03:29;101611.31;;;0.72;99.32
45541;BME280;31265;49.680;8.608;2023-04-04T01:05:58;101610.69;;;0.77;95.67
45541;BME280;31265;49.680;8.608;2023-04-04T01:08:28;101607.38;;;0.64;100.00
45541;BME280;31265;49.680;8.608;2023-04-04T01:10:58;101606.84;;;0.51;100.00
45541;BME280;31265;49.680;8.608;2023-04-04T01:13:28;101608.34;;;0.52;100.00
45541;BME280;31265;49.680;8.608;2023-04-04T01:15:59;101608.94;;;0.56;100.00
45541;BME280;31265;49.680;8.608;2023-04-04T01:18:28;101611.97;;;0.58;99.26
45541;BME280;31265;49.680;8.608;2023-04-04T01:21:00;101611.97;;;0.58;100.00
45541;BME280;31265;49.680;8.608;2023-04-04T01:23:34;101601.50;;;0.56;100.00
45541;BME280;31265;49.680;8.608;2023-04-04T01:26:06;101605.91;;;0.54;100.00
45541;BME280;31265;49.680;8.608;2023-04-04T01:28:36;101611.06;;;0.52;100.00
45541;BME280;31265;49.680;8.608;2023-04-04T01:31:11;101606.56;;;0.39;100.00
45541;BME280;31265;49.680;8.608;2023-04-04T01:33:45;101602.78;;;0.37;100.00
45541;BME280;31265;49.680;8.608;2023-04-04T01:36:22;101599.59;;;0.38;100.00
45541;BME280;31265;49.680;8.608;2023-04-04T01:38:57;101597.38;;;0.70;100.00
45541;BME280;31265;49.680;8.608;2023-04-04T01:41:31;101596.53;;;0.55;99.59
45541;BME280;31265;49.680;8.608;2023-04-04T01:44:02;101597.16;;;0.40;100.00
45541;BME280;31265;49.680;8.608;2023-04-04T01:46:31;101580.88;;;0.55;100.00
45541;BME280;31265;49.680;8.608;2023-04-04T01:48:59;101593.72;;;0.64;100.00
45541;BME280;31265;49.680;8.608;2023-04-04T01:51:32;101581.22;;;0.48;100.00
45541;BME280;31265;49.680;8.608;2023-04-04T01:54:03;101586.25;;;0.40;100.00
45541;BME280;31265;49.680;8.608;2023-04-04T01:56:33;101586.13;;;0.35;100.00
45541;BME280;31265;49.680;8.608;2023-04-04T01:59:03;101582.19;;;0.27;100.00
45541;BME280;31265;49.680;8.608;2023-04-04T02:01:32;101573.66;;;0.34;100.00
45541;BME280;31265;49.680;8.608;2023-04-04T02:04:01;101566.66;;;0.42;100.00
45541;BME280;31265;49.680;8.608;2023-04-04T02:06:30;101584.06;;;0.54;100.00
45541;BME280;31265;49.680;8.608;2023-04-04T02:08:59;101584.47;;;0.61;99.58
45541;BME280;31265;49.680;8.608;2023-04-04T02:11:29;101585.25;;;0.62;100.00
45541;BME280;31265;49.680;8.608;2023-04-04T02:13:59;101588.03;;;0.53;98.11
45541;BME280;31265;49.680;8.608;2023-04-04T02:16:27;101589.50;;;0.63;99.62
45541;BME280;31265;49.680;8.608;2023-04-04T02:18:57;101597.72;;;0.54;98.78
45541;BME280;31265;49.680;8.608;2023-04-04T02:21:27;101597.41;;;0.52;98.55
45541;BME280;31265;49.680;8.608;2023-04-04T02:23:56;101590.28;;;0.54;98.15
45541;BME280;31265;49.680;8.608;2023-04-04T02:26:24;101591.38;;;0.48;100.00
45541;BME280;31265;49.680;8.608;2023-04-04T02:28:53;101590.63;;;0.47;100.00
45541;BME280;31265;49.680;8.608;2023-04-04T02:31:23;101584.28;;;0.32;100.00
45541;BME280;31265;49.680;8.608;2023-04-04T02:33:52;101589.63;;;0.17;100.00
45541;BME280;31265;49.680;8.608;2023-04-04T02:36:23;101593.75;;;0.12;100.00
45541;BME280;31265;49.680;8.608;2023-04-04T02:38:53;101594.53;;;0.13;100.00
45541;BME280;31265;49.680;8.608;2023-04-04T02:41:24;101592.22;;;0.11;100.00
45541;BME280;31265;49.680;8.608;2023-04-04T02:43:53;101589.38;;;0.15;100.00
45541;BME280;31265;49.680;8.608;2023-04-04T02:46:25;101575.09;;;0.20;100.00
45541;BME280;31265;49.680;8.608;2023-04-04T02:49:01;101584.47;;;0.19;100.00
45541;BME280;31265;49.680;8.608;2023-04-04T02:51:30;101578.72;;;0.17;100.00
45541;BME280;31265;49.680;8.608;2023-04-04T02:53:59;101581.59;;;0.23;100.00
45541;BME280;31265;49.680;8.608;2023-04-04T02:56:36;101579.66;;;0.14;100.00
45541;BME280;31265;49.680;8.608;2023-04-04T02:59:04;101577.66;;;0.14;100.00
45541;BME280;31265;49.680;8.608;2023-04-04T03:01:34;101575.09;;;0.11;100.00
45541;BME280;31265;49.680;8.608;2023-04-04T03:04:04;101575.13;;;0.02;100.00
45541;BME280;31265;49.680;8.608;2023-04-04T03:06:34;101576.81;;;-0.10;100.00
45541;BME280;31265;49.680;8.608;2023-04-04T03:09:04;101574.69;;;-0.15;100.00
45541;BME280;31265;49.680;8.608;2023-04-04T03:11:34;101575.78;;;-0.22;100.00
45541;BME280;31265;49.680;8.608;2023-04-04T03:14:03;101577.91;;;-0.26;100.00
45541;BME280;31265;49.680;8.608;2023-04-04T03:16:39;101571.81;;;-0.30;100.00
45541;BME280;31265;49.680;8.608;2023-04-04T03:19:07;101575.63;;;-0.37;100.00
45541;BME280;31265;49.680;8.608;2023-04-04T03:21:36;101575.63;;;-0.37;100.00
45541;BME280;31265;49.680;8.608;2023-04-04T03:24:06;101565.47;;;-0.36;100.00
45541;BME280;31265;49.680;8.608;2023-04-04T03:26:34;101570.63;;;-0.48;100.00
45541;BME280;31265;49.680;8.608;2023-04-04T03:29:04;101567.75;;;-0.53;100.00
45541;BME280;31265;49.680;8.608;2023-04-04T03:31:33;101571.81;;;-0.67;100.00
45541;BME280;31265;49.680;8.608;2023-04-04T03:34:03;101569.88;;;-0.48;100.00
45541;BME280;31265;49.680;8.608;2023-04-04T03:36:31;101567.00;;;-0.54;100.00
45541;BME280;31265;49.680;8.608;2023-04-04T03:38:59;101571.53;;;-0.51;100.00
45541;BME280;31265;49.680;8.608;2023-04-04T03:41:29;101565.78;;;-0.53;100.00
45541;BME280;31265;49.680;8.608;2023-04-04T03:43:57;101565.94;;;-0.66;100.00
45541;BME280;31265;49.680;8.608;2023-04-04T03:46:26;101563.50;;;-0.63;100.00
45541;BME280;31265;49.680;8.608;2023-04-04T03:48:55;101557.59;;;-0.53;100.00
45541;BME280;31265;49.680;8.608;2023-04-04T03:51:25;101558.50;;;-0.56;100.00
45541;BME280;31265;49.680;8.608;2023-04-04T03:53:55;101562.91;;;-0.49;100.00
45541;BME280;31265;49.680;8.608;2023-04-04T03:56:23;101558.19;;;-0.30;100.00
45541;BME280;31265;49.680;8.608;2023-04-04T03:58:54;101566.06;;;-0.32;100.00
45541;BME280;31265;49.680;8.608;2023-04-04T04:01:22;101569.84;;;-0.20;100.00
45541;BME280;31265;49.680;8.608;2023-04-04T04:03:51;101567.44;;;-0.28;100.00
45541;BME280;31265;49.680;8.608;2023-04-04T04:06:22;101569.09;;;-0.21;100.00
45541;BME280;31265;49.680;8.608;2023-04-04T04:08:55;101560.78;;;-0.36;100.00
45541;BME280;31265;49.680;8.608;2023-04-04T04:11:24;101563.63;;;-0.30;100.00
45541;BME280;31265;49.680;8.608;2023-04-04T04:13:52;101561.84;;;-0.33;100.00
45541;BME280;31265;49.680;8.608;2023-04-04T04:16:22;101564.25;;;-0.26;100.00
45541;BME280;31265;49.680;8.608;2023-04-04T04:18:50;101567.44;;;-0.28;100.00
45541;BME280;31265;49.680;8.608;2023-04-04T04:21:31;101564.25;;;-0.35;100.00
45541;BME280;31265;49.680;8.608;2023-04-04T04:24:01;101559.53;;;-0.26;100.00
45541;BME280;31265;49.680;8.608;2023-04-04T04:26:31;101564.84;;;-0.13;100.00
45541;BME280;31265;49.680;8.608;2023-04-04T04:29:01;101564.88;;;-0.22;100.00
45541;BME280;31265;49.680;8.608;2023-04-04T04:31:32;101561.53;;;-0.35;100.00
45541;BME280;31265;49.680;8.608;2023-04-04T04:34:04;101567.44;;;-0.46;100.00
45541;BME280;31265;49.680;8.608;2023-04-04T04:36:36;101565.34;;;-0.51;100.00
45541;BME280;31265;49.680;8.608;2023-04-04T04:39:19;101564.13;;;-0.41;100.00
45541;BME280;31265;49.680;8.608;2023-04-04T04:42:10;101559.88;;;-0.51;100.00
45541;BME280;31265;49.680;8.608;2023-04-04T04:44:46;101564.72;;;-0.55;100.00
45541;BME280;31265;49.680;8.608;2023-04-04T04:47:20;101560.31;;;-0.34;100.00
45541;BME280;31265;49.680;8.608;2023-04-04T04:49:49;101566.22;;;-0.27;100.00
45541;BME280;31265;49.680;8.608;2023-04-04T04:52:22;101566.38;;;-0.21;100.00
45541;BME280;31265;49.680;8.608;2023-04-04T04:54:52;101569.09;;;-0.21;100.00
45541;BME280;31265;49.680;8.608;2023-04-04T04:57:24;101573.00;;;-0.13;100.00
45541;BME280;31265;49.680;8.608;2023-04-04T04:59:54;101572.75;;;-0.24;100.00
45541;BME280;31265;49.680;8.608;2023-04-04T05:02:26;101573.00;;;-0.04;100.00
45541;BME280;31265;49.680;8.608;2023-04-04T05:04:55;101578.16;;;-0.06;100.00
45541;BME280;31265;49.680;8.608;2023-04-04T05:07:24;101572.13;;;-0.10;100.00
45541;BME280;31265;49.680;8.608;2023-04-04T05:09:54;101573.94;;;-0.16;100.00
45541;BME280;31265;49.680;8.608;2023-04-04T05:12:23;101572.44;;;-0.17;100.00
45541;BME280;31265;49.680;8.608;2023-04-04T05:14:53;101570.91;;;-0.18;100.00
45541;BME280;31265;49.680;8.608;2023-04-04T05:17:23;101570.75;;;-0.14;100.00
45541;BME280;31265;49.680;8.608;2023-04-04T05:19:56;101577.91;;;-0.26;100.00
45541;BME280;31265;49.680;8.608;2023-04-04T05:22:25;101572.44;;;-0.26;100.00
45541;BME280;31265;49.680;8.608;2023-04-04T05:24:58;101575.16;;;-0.26;100.00
45541;BME280;31265;49.680;8.608;2023-04-04T05:27:26;101580.59;;;-0.08;100.00
45541;BME280;31265;49.680;8.608;2023-04-04T05:29:58;101578.78;;;-0.20;100.00
45541;BME280;31265;49.680;8.608;2023-04-04T05:32:36;101576.06;;;-0.20;100.00
45541;BME280;31265;49.680;8.608;2023-04-04T05:35:10;101577.72;;;-0.13;100.00
45541;BME280;31265;49.680;8.608;2023-04-04T05:37:39;101587.09;;;-0.05;100.00
45541;BME280;31265;49.680;8.608;2023-04-04T05:40:14;101581.19;;;-0.04;100.00
45541;BME280;31265;49.680;8.608;2023-04-04T05:42:53;101584.22;;;-0.02;100.00
45541;BME280;31265;49.680;8.608;2023-04-04T05:45:23;101583.91;;;0.06;100.00
45541;BME280;31265;49.680;8.608;2023-04-04T05:47:54;101580.38;;;0.24;100.00
45541;BME280;31265;49.680;8.608;2023-04-04T05:50:24;101571.41;;;0.32;100.00
45541;BME280;31265;49.680;8.608;2023-04-04T05:52:59;101571.88;;;0.31;100.00
45541;BME280;31265;49.680;8.608;2023-04-04T05:55:30;101572.91;;;0.42;100.00
45541;BME280;31265;49.680;8.608;2023-04-04T05:57:58;101574.56;;;0.40;100.00
45541;BME280;31265;49.680;8.608;2023-04-04T06:00:41;101581.03;;;0.52;100.00
45541;BME280;31265;49.680;8.608;2023-04-04T06:03:10;101583.91;;;0.57;100.00
45541;BME280;31265;49.680;8.608;2023-04-04T06:05:41;101579.59;;;0.75;100.00
45541;BME280;31265;49.680;8.608;2023-04-04T06:08:11;101583.91;;;0.91;99.06
45541;BME280;31265;49.680;8.608;2023-04-04T06:10:41;101580.59;;;1.11;94.79
45541;BME280;31265;49.680;8.608;2023-04-04T06:13:10;101588.16;;;1.16;95.09
45541;BME280;31265;49.680;8.608;2023-04-04T06:15:41;101581.88;;;1.24;92.90
45541;BME280;31265;49.680;8.608;2023-04-04T06:18:10;101587.75;;;1.32;90.29
45541;BME280;31265;49.680;8.608;2023-04-04T06:20:39;101585.63;;;1.51;91.39
45541;BME280;31265;49.680;8.608;2023-04-04T06:23:08;101587.13;;;1.52;91.71
45541;BME280;31265;49.680;8.608;2023-04-04T06:25:42;101587.75;;;1.71;91.13
45541;BME280;31265;49.680;8.608;2023-04-04T06:28:12;101585.69;;;1.81;87.44
45541;BME280;31265;49.680;8.608;2023-04-04T06:30:45;101596.75;;;2.01;88.16
45541;BME280;31265;49.680;8.608;2023-04-04T06:33:26;101598.91;;;2.12;86.52
45541;BME280;31265;49.680;8.608;2023-04-04T06:35:54;101601.56;;;2.06;83.84
45541;BME280;31265;49.680;8.608;2023-04-04T06:38:24;101599.84;;;2.24;82.39
45541;BME280;31265;49.680;8.608;2023-04-04T06:40:55;101593.50;;;2.18;81.50
45541;BME280;31265;49.680;8.608;2023-04-04T06:43:23;101604.75;;;2.34;81.57
45541;BME280;31265;49.680;8.608;2023-04-04T06:45:52;101601.91;;;2.44;82.20
45541;BME280;31265;49.680;8.608;2023-04-04T06:48:21;101618.53;;;2.70;82.49
45541;BME280;31265;49.680;8.608;2023-04-04T06:50:49;101611.34;;;2.72;78.73
45541;BME280;31265;49.680;8.608;2023-04-04T06:53:18;101611.13;;;2.76;78.93
45541;BME280;31265;49.680;8.608;2023-04-04T06:55:47;101618.75;;;2.87;78.48
45541;BME280;31265;49.680;8.608;2023-04-04T06:58:17;101618.88;;;3.13;75.79
45541;BME280;31265;49.680;8.608;2023-04-04T07:00:45;101611.44;;;2.98;75.40
45541;BME280;31265;49.680;8.608;2023-04-04T07:03:22;101616.97;;;3.39;77.64
45541;BME280;31265;49.680;8.608;2023-04-04T07:05:51;101616.97;;;3.39;74.24
45541;BME280;31265;49.680;8.608;2023-04-04T07:08:20;101624.69;;;3.61;72.86
45541;BME280;31265;49.680;8.608;2023-04-04T07:10:48;101624.44;;;3.85;72.12
45541;BME280;31265;49.680;8.608;2023-04-04T07:13:19;101622.28;;;3.95;72.73
45541;BME280;31265;49.680;8.608;2023-04-04T07:15:48;101620.34;;;3.96;70.13
45541;BME280;31265;49.680;8.608;2023-04-04T07:18:17;101622.31;;;4.21;73.87
45541;BME280;31265;49.680;8.608;2023-04-04T07:20:45;101624.31;;;4.21;70.44
45541;BME280;31265;49.680;8.608;2023-04-04T07:23:15;101623.94;;;4.71;70.83
45541;BME280;31265;49.680;8.608;2023-04-04T07:25:43;101624.63;;;4.28;68.00
45541;BME280;31265;49.680;8.608;2023-04-04T07:28:12;101623.44;;;4.09;69.42
45541;BME280;31265;49.680;8.608;2023-04-04T07:30:42;101623.47;;;4.41;69.16
45541;BME280;31265;49.680;8.608;2023-04-04T07:33:10;101627.09;;;4.58;68.95
45541;BME280;31265;49.680;8.608;2023-04-04T07:35:39;101635.13;;;4.62;68.36
45541;BME280;31265;49.680;8.608;2023-04-04T07:38:09;101617.00;;;4.44;67.57
45541;BME280;31265;49.680;8.608;2023-04-04T07:40:39;101630.34;;;4.57;65.26
45541;BME280;31265;49.680;8.608;2023-04-04T07:43:07;101624.69;;;4.71;64.58
45541;BME280;31265;49.680;8.608;2023-04-04T07:45:38;101618.59;;;4.99;65.45
45541;BME280;31265;49.680;8.608;2023-04-04T07:48:09;101615.41;;;5.06;61.75
45541;BME280;31265;49.680;8.608;2023-04-04T07:50:38;101613.16;;;5.05;62.86
45541;BME280;31265;49.680;8.608;2023-04-04T07:53:07;101610.66;;;5.07;63.92
45541;BME280;31265;49.680;8.608;2023-04-04T07:55:36;101615.94;;;5.10;63.82
45541;BME280;31265;49.680;8.608;2023-04-04T07:58:04;101619.97;;;5.21;63.50
45541;BME280;31265;49.680;8.608;2023-04-04T08:00:34;101613.53;;;5.35;61.15
45541;BME280;31265;49.680;8.608;2023-04-04T08:03:03;101614.94;;;5.85;61.50
45541;BME280;31265;49.680;8.608;2023-04-04T08:05:33;101611.53;;;5.30;58.56
45541;BME280;31265;49.680;8.608;2023-04-04T08:08:01;101616.22;;;5.24;59.29
45541;BME280;31265;49.680;8.608;2023-04-04T08:10:31;101609.88;;;5.66;60.17
45541;BME280;31265;49.680;8.608;2023-04-04T08:13:00;101612.75;;;6.39;60.10
45541;BME280;31265;49.680;8.608;2023-04-04T08:15:34;101612.53;;;6.26;58.12
45541;BME280;31265;49.680;8.608;2023-04-04T08:18:07;101617.50;;;6.05;60.08
45541;BME280;31265;49.680;8.608;2023-04-04T08:20:36;101614.25;;;6.40;59.46
45541;BME280;31265;49.680;8.608;2023-04-04T08:23:06;101609.75;;;6.32;55.56
45541;BME280;31265;49.680;8.608;2023-04-04T08:25:34;101611.75;;;6.59;55.78
45541;BME280;31265;49.680;8.608;2023-04-04T08:28:02;101615.00;;;6.80;56.33
45541;BME280;31265;49.680;8.608;2023-04-04T08:30:31;101603.97;;;6.69;52.47
45541;BME280;31265;49.680;8.608;2023-04-04T08:32:59;101609.88;;;7.18;53.04
45541;BME280;31265;49.680;8.608;2023-04-04T08:35:32;101609.44;;;6.92;54.66
45541;BME280;31265;49.680;8.608;2023-04-04T08:38:02;101606.69;;;6.92;57.13
45541;BME280;31265;49.680;8.608;2023-04-04T08:40:34;101613.91;;;7.06;51.60
45541;BME280;31265;49.680;8.608;2023-04-04T08:43:05;101607.66;;;7.05;49.40
45541;BME280;31265;49.680;8.608;2023-04-04T08:45:35;101608.00;;;7.43;50.35
45541;BME280;31265;49.680;8.608;2023-04-04T08:48:04;101611.03;;;7.87;51.52
45541;BME280;31265;49.680;8.608;2023-04-04T08:50:35;101612.84;;;7.79;53.05
45541;BME280;31265;49.680;8.608;2023-04-04T08:53:08;101617.03;;;7.49;50.52
45541;BME280;31265;49.680;8.608;2023-04-04T08:55:37;101604.72;;;7.92;49.99
45541;BME280;31265;49.680;8.608;2023-04-04T08:58:06;101603.41;;;7.98;45.77
45541;BME280;31265;49.680;8.608;2023-04-04T09:00:35;101591.94;;;7.47;50.86
45541;BME280;31265;49.680;8.608;2023-04-04T09:03:13;101605.03;;;7.83;51.48
45541;BME280;31265;49.680;8.608;2023-04-04T09:05:47;101605.81;;;8.13;48.94
45541;BME280;31265;49.680;8.608;2023-04-04T09:08:17;101606.00;;;8.27;48.58
45541;BME280;31265;49.680;8.608;2023-04-04T09:10:46;101596.03;;;7.77;47.69
45541;BME280;31265;49.680;8.608;2023-04-04T09:13:15;101593.22;;;7.41;49.91
45541;BME280;31265;49.680;8.608;2023-04-04T09:15:45;101598.25;;;7.31;48.17
45541;BME280;31265;49.680;8.608;2023-04-04T09:18:15;101590.97;;;7.33;49.53
45541;BME280;31265;49.680;8.608;2023-04-04T09:20:45;101594.63;;;7.59;48.99
45541;BME280;31265;49.680;8.608;2023-04-04T09:23:17;101593.50;;;7.79;50.90
45541;BME280;31265;49.680;8.608;2023-04-04T09:25:48;101591.47;;;7.38;46.33
45541;BME280;31265;49.680;8.608;2023-04-04T09:28:20;101593.38;;;7.95;49.09
45541;BME280;31265;49.680;8.608;2023-04-04T09:30:49;101593.03;;;8.10;45.22
45541;BME280;31265;49.680;8.608;2023-04-04T09:33:20;101594.63;;;8.30;46.62
45541;BME280;31265;49.680;8.608;2023-04-04T09:35:51;101600.44;;;7.91;45.87
45541;BME280;31265;49.680;8.608;2023-04-04T09:38:25;101589.69;;;8.53;45.11
45541;BME280;31265;49.680;8.608;2023-04-04T09:40:54;101592.22;;;8.21;46.47
45541;BME280;31265;49.680;8.608;2023-04-04T09:43:23;101594.38;;;9.51;46.13
45541;BME280;31265;49.680;8.608;2023-04-04T09:45:53;101588.50;;;9.93;43.39
45541;BME280;31265;49.680;8.608;2023-04-04T09:48:25;101588.41;;;9.47;46.63
45541;BME280;31265;49.680;8.608;2023-04-04T09:50:55;101593.03;;;9.20;44.61
45541;BME280;31265;49.680;8.608;2023-04-04T09:53:33;101597.19;;;8.58;44.25
45541;BME280;31265;49.680;8.608;2023-04-04T09:56:05;101587.72;;;8.48;46.59
45541;BME280;31265;49.680;8.608;2023-04-04T09:58:37;101591.53;;;8.94;47.04
45541;BME280;31265;49.680;8.608;2023-04-04T10:01:12;101595.09;;;9.14;44.32
45541;BME280;31265;49.680;8.608;2023-04-04T10:03:41;101592.56;;;9.73;45.38
45541;BME280;31265;49.680;8.608;2023-04-04T10:06:10;101600.72;;;10.16;42.90
45541;BME280;31265;49.680;8.608;2023-04-04T10:08:42;101592.38;;;10.03;40.79
45541;BME280;31265;49.680;8.608;2023-04-04T10:11:11;101587.78;;;9.35;44.06
45541;BME280;31265;49.680;8.608;2023-04-04T10:13:41;101594.75;;;10.12;41.10
45541;BME280;31265;49.680;8.608;2023-04-04T10:16:10;101593.16;;;9.46;42.08
45541;BME280;31265;49.680;8.608;2023-04-04T10:18:40;101587.81;;;10.19;39.85
45541;BME280;31265;49.680;8.608;2023-04-04T10:21:08;101596.03;;;9.60;39.77
45541;BME280;31265;49.680;8.608;2023-04-04T10:23:44;101587.13;;;9.48;40.88
45541;BME280;31265;49.680;8.608;2023-04-04T10:26:13;101585.75;;;8.92;43.16
45541;BME280;31265;49.680;8.608;2023-04-04T10:28:42;101586.38;;;8.60;43.91
45541;BME280;31265;49.680;8.608;2023-04-04T10:31:16;101586.94;;;8.78;43.90
45541;BME280;31265;49.680;8.608;2023-04-04T10:33:52;101584.59;;;9.07;42.02
45541;BME280;31265;49.680;8.608;2023-04-04T10:36:29;101579.81;;;9.07;44.26
45541;BME280;31265;49.680;8.608;2023-04-04T10:39:07;101592.56;;;9.92;41.60
45541;BME280;31265;49.680;8.608;2023-04-04T10:41:41;101581.53;;;10.18;39.41
45541;BME280;31265;49.680;8.608;2023-04-04T10:44:28;101577.16;;;10.42;40.99
45541;BME280;31265;49.680;8.608;2023-04-04T10:47:03;101577.59;;;9.24;40.29
45541;BME280;31265;49.680;8.608;2023-04-04T10:49:33;101578.22;;;8.93;45.60
45541;BME280;31265;49.680;8.608;2023-04-04T10:52:02;101566.72;;;9.08;45.55
45541;BME280;31265;49.680;8.608;2023-04-04T10:54:33;101577.91;;;8.47;46.46
45541;BME280;31265;49.680;8.608;2023-04-04T10:57:01;101571.00;;;9.46;46.88
45541;BME280;31265;49.680;8.608;2023-04-04T10:59:30;101579.63;;;9.62;42.28
45541;BME280;31265;49.680;8.608;2023-04-04T11:02:01;101570.09;;;9.76;41.78
45541;BME280;31265;49.680;8.608;2023-04-04T11:04:32;101565.72;;;10.00;41.57
45541;BME280;31265;49.680;8.608;2023-04-04T11:07:12;101556.84;;;10.33;41.29
45541;BME280;31265;49.680;8.608;2023-04-04T11:09:55;101550.63;;;9.82;39.50
45541;BME280;31265;49.680;8.608;2023-04-04T11:12:28;101540.44;;;10.89;39.89
45541;BME280;31265;49.680;8.608;2023-04-04T11:15:06;101538.69;;;11.60;38.62
45541;BME280;31265;49.680;8.608;2023-04-04T11:17:54;101539.28;;;11.32;38.32
45541;BME280;31265;49.680;8.608;2023-04-04T11:20:28;101534.59;;;11.61;37.96
45541;BME280;31265;49.680;8.608;2023-04-04T11:23:05;101531.69;;;10.45;44.59
45541;BME280;31265;49.680;8.608;2023-04-04T11:25:37;101530.94;;;11.66;37.95
45541;BME280;31265;49.680;8.608;2023-04-04T11:28:25;101532.75;;;11.43;38.15
45541;BME280;31265;49.680;8.608;2023-04-04T11:31:23;101524.94;;;11.41;38.34
45541;BME280;31265;49.680;8.608;2023-04-04T11:33:56;101524.84;;;11.68;39.72
45541;BME280;31265;49.680;8.608;2023-04-04T11:36:50;101526.78;;;10.91;38.96
45541;BME280;31265;49.680;8.608;2023-04-04T11:39:25;101525.19;;;11.30;39.79
45541;BME280;31265;49.680;8.608;2023-04-04T11:42:00;101523.41;;;11.53;37.34
45541;BME280;31265;49.680;8.608;2023-04-04T11:44:40;101515.22;;;11.48;39.15
45541;BME280;31265;49.680;8.608;2023-04-04T11:47:10;101521.16;;;11.52;40.56
45541;BME280;31265;49.680;8.608;2023-04-04T11:49:41;101505.13;;;12.50;37.63
45541;BME280;31265;49.680;8.608;2023-04-04T11:52:11;101504.50;;;12.43;36.63
45541;BME280;31265;49.680;8.608;2023-04-04T11:54:41;101501.59;;;11.57;37.43
45541;BME280;31265;49.680;8.608;2023-04-04T11:57:12;101508.44;;;11.77;38.70
45541;BME280;31265;49.680;8.608;2023-04-04T11:59:43;101498.50;;;11.82;38.07
45541;BME280;31265;49.680;8.608;2023-04-04T12:02:15;101491.91;;;11.93;37.55
45541;BME280;31265;49.680;8.608;2023-04-04T12:04:46;101484.53;;;11.95;36.33
45541;BME280;31265;49.680;8.608;2023-04-04T12:07:16;101484.03;;;11.62;37.06
45541;BME280;31265;49.680;8.608;2023-04-04T12:09:46;101478.88;;;11.46;36.58
45541;BME280;31265;49.680;8.608;2023-04-04T12:12:18;101480.03;;;11.50;37.18
45541;BME280;31265;49.680;8.608;2023-04-04T12:14:47;101477.59;;;9.93;38.37
45541;BME280;31265;49.680;8.608;2023-04-04T12:17:18;101474.25;;;10.80;39.80
45541;BME280;31265;49.680;8.608;2023-04-04T12:19:48;101475.56;;;11.13;38.34
45541;BME280;31265;49.680;8.608;2023-04-04T12:22:16;101463.50;;;11.10;38.90
45541;BME280;31265;49.680;8.608;2023-04-04T12:24:46;101475.41;;;12.16;37.13
45541;BME280;31265;49.680;8.608;2023-04-04T12:27:14;101473.25;;;11.38;37.81
45541;BME280;31265;49.680;8.608;2023-04-04T12:29:53;101476.47;;;11.29;37.58
45541;BME280;31265;49.680;8.608;2023-04-04T12:32:26;101468.78;;;10.87;36.94
45541;BME280;31265;49.680;8.608;2023-04-04T12:35:01;101470.19;;;10.81;39.71
45541;BME280;31265;49.680;8.608;2023-04-04T12:37:35;101472.69;;;11.05;38.80
45541;BME280;31265;49.680;8.608;2023-04-04T12:40:06;101462.81;;;10.70;40.57
45541;BME280;31265;49.680;8.608;2023-04-04T12:42:43;101462.38;;;11.27;41.10
45541;BME280;31265;49.680;8.608;2023-04-04T12:45:26;101463.88;;;10.93;39.23
45541;BME280;31265;49.680;8.608;2023-04-04T12:48:08;101457.75;;;11.08;42.93
45541;BME280;31265;49.680;8.608;2023-04-04T12:50:51;101447.75;;;11.47;38.03
45541;BME280;31265;49.680;8.608;2023-04-04T12:53:24;101447.28;;;11.01;39.42
45541;BME280;31265;49.680;8.608;2023-04-04T12:55:59;101445.59;;;11.53;37.54
45541;BME280;31265;49.680;8.608;2023-04-04T12:58:29;101443.25;;;10.89;41.67
45541;BME280;31265;49.680;8.608;2023-04-04T13:01:03;101440.44;;;10.41;40.13
45541;BME280;31265;49.680;8.608;2023-04-04T13:03:33;101440.06;;;10.85;42.00
45541;BME280;31265;49.680;8.608;2023-04-04T13:06:10;101431.00;;;10.84;39.39
45541;BME280;31265;49.680;8.608;2023-04-04T13:08:52;101446.72;;;12.00;37.69
45541;BME280;31265;49.680;8.608;2023-04-04T13:12:02;101439.59;;;12.48;37.73
45541;BME280;31265;49.680;8.608;2023-04-04T13:14:56;101437.19;;;12.16;37.43